createdAt,value
2022-11-20T00:01:26.103Z,23.10
2022-11-20T00:02:57.726Z,23.92
2022-11-20T00:04:29.450Z,22.90
2022-11-20T00:06:01.542Z,21.50
2022-11-20T00:07:33.278Z,20.73
2022-11-20T00:09:06.279Z,20.95
2022-11-20T00:10:38.066Z,23.38
2022-11-20T00:12:09.900Z,21.33
2022-11-20T00:13:41.581Z,22.35
2022-11-20T00:15:14.634Z,24.73
2022-11-20T00:16:46.250Z,22.77
2022-11-20T00:18:17.859Z,25.13
2022-11-20T00:19:49.479Z,24.98
2022-11-20T00:21:22.929Z,25.08
2022-11-20T00:22:54.651Z,21.90
2022-11-20T00:24:26.283Z,25.20
2022-11-20T00:26:01.618Z,23.80
2022-11-20T00:27:33.515Z,24.17
2022-11-20T00:29:05.442Z,23.65
2022-11-20T00:30:38.406Z,24.92
2022-11-20T00:32:10.103Z,21.67
2022-11-20T00:33:42.286Z,22.50
2022-11-20T00:35:13.965Z,24.85
2022-11-20T00:36:45.642Z,23.33
2022-11-20T00:38:17.334Z,24.20
2022-11-20T00:39:48.953Z,22.00
2022-11-20T00:41:21.048Z,24.52
2022-11-20T00:42:52.682Z,24.33
2022-11-20T00:44:24.359Z,25.33
2022-11-20T00:46:00.882Z,24.42
2022-11-20T00:47:32.515Z,22.63
2022-11-20T00:49:04.157Z,24.77
2022-11-20T00:50:35.749Z,21.98
2022-11-20T00:52:07.465Z,25.52
2022-11-20T00:53:39.346Z,25.42
2022-11-20T00:55:10.994Z,21.35
2022-11-20T00:56:42.615Z,25.35
2022-11-20T00:58:14.614Z,23.35
2022-11-20T00:59:46.289Z,23.10
2022-11-20T01:01:21.358Z,23.85
2022-11-20T01:02:53.027Z,23.67
2022-11-20T01:04:24.667Z,23.92
2022-11-20T01:06:00.818Z,23.38
2022-11-20T01:07:33.401Z,23.55
2022-11-20T01:09:10.553Z,23.38
2022-11-20T01:10:42.184Z,24.10
2022-11-20T01:12:13.834Z,25.25
2022-11-20T01:13:46.114Z,24.17
2022-11-20T01:15:17.744Z,22.38
2022-11-20T01:16:52.132Z,21.73
2022-11-20T01:18:23.774Z,25.20
2022-11-20T01:19:55.406Z,24.33
2022-11-20T01:21:29.693Z,22.83
2022-11-20T01:23:01.294Z,23.73
2022-11-20T01:24:32.963Z,22.48
2022-11-20T01:26:06.890Z,23.10
2022-11-20T01:27:38.524Z,21.15
2022-11-20T01:29:13.381Z,22.17
2022-11-20T01:30:45.039Z,23.67
2022-11-20T01:32:18.042Z,23.50
2022-11-20T01:33:51.995Z,23.67
2022-11-20T01:35:23.634Z,22.08
2022-11-20T01:36:55.323Z,24.35
2022-11-20T01:38:26.918Z,25.55
2022-11-20T01:39:58.536Z,23.08
2022-11-20T01:41:50.645Z,22.48
2022-11-20T01:43:22.831Z,24.00
2022-11-20T01:44:57.608Z,26.00
2022-11-20T01:46:29.372Z,23.55
2022-11-20T01:48:02.449Z,21.92
2022-11-20T01:49:38.498Z,26.90
2022-11-20T01:51:17.141Z,26.73
2022-11-20T01:52:52.474Z,23.70
2022-11-20T01:54:30.873Z,24.73
2022-11-20T01:56:06.650Z,24.02
2022-11-20T01:57:39.720Z,26.70
2022-11-20T01:59:14.472Z,22.40
2022-11-20T02:00:46.125Z,21.95
2022-11-20T02:02:17.779Z,24.35
2022-11-20T02:03:51.517Z,25.30
2022-11-20T02:05:28.013Z,21.67
2022-11-20T02:07:01.742Z,23.90
2022-11-20T02:08:34.155Z,25.13
2022-11-20T02:10:05.977Z,21.30
2022-11-20T02:11:37.571Z,22.75
2022-11-20T02:13:27.878Z,22.77
2022-11-20T02:14:59.579Z,24.13
2022-11-20T02:16:33.490Z,26.83
2022-11-20T02:18:06.514Z,23.90
2022-11-20T02:19:39.955Z,23.58
2022-11-20T02:21:21.542Z,24.00
2022-11-20T02:22:58.756Z,23.95
2022-11-20T02:24:32.208Z,28.25
2022-11-20T02:26:07.123Z,23.67
2022-11-20T02:27:38.813Z,25.02
2022-11-20T02:29:10.438Z,21.77
2022-11-20T02:30:42.105Z,26.60
2022-11-20T02:32:20.180Z,26.15
2022-11-20T02:33:56.030Z,27.70
2022-11-20T02:35:43.499Z,24.38
2022-11-20T02:37:16.131Z,26.10
2022-11-20T02:38:48.620Z,23.38
2022-11-20T02:40:22.721Z,24.98
2022-11-20T02:41:55.022Z,26.33
2022-11-20T02:43:26.641Z,24.23
2022-11-20T02:44:58.274Z,24.85
2022-11-20T02:46:30.340Z,23.67
2022-11-20T02:48:02.078Z,24.17
2022-11-20T02:49:34.117Z,24.98
2022-11-20T02:51:05.839Z,23.55
2022-11-20T02:52:37.470Z,25.55
2022-11-20T02:54:09.089Z,29.08
2022-11-20T02:55:42.049Z,26.25
2022-11-20T02:57:13.725Z,23.45
2022-11-20T02:58:45.374Z,27.77
2022-11-20T03:00:17.330Z,26.02
2022-11-20T03:01:48.932Z,25.25
2022-11-20T03:03:20.570Z,24.00
2022-11-20T03:04:52.297Z,23.55
2022-11-20T03:06:23.953Z,23.02
2022-11-20T03:07:55.571Z,22.75
2022-11-20T03:09:27.229Z,23.20
2022-11-20T03:11:05.323Z,21.30
2022-11-20T03:12:36.940Z,22.80
2022-11-20T03:14:08.558Z,25.65
2022-11-20T03:15:40.218Z,23.38
2022-11-20T03:17:12.129Z,26.33
2022-11-20T03:18:44.097Z,26.30
2022-11-20T03:20:15.961Z,25.08
2022-11-20T03:21:48.196Z,25.33
2022-11-20T03:23:19.802Z,24.50
2022-11-20T03:24:52.071Z,25.73
2022-11-20T03:26:26.724Z,21.38
2022-11-20T03:27:58.418Z,25.83
2022-11-20T03:29:30.084Z,25.25
2022-11-20T03:31:06.533Z,24.20
2022-11-20T03:32:38.313Z,26.65
2022-11-20T03:34:11.671Z,21.33
2022-11-20T03:35:43.337Z,23.65
2022-11-20T03:37:15.034Z,23.23
2022-11-20T03:38:47.250Z,26.00
2022-11-20T03:40:18.906Z,23.75
2022-11-20T03:41:51.886Z,24.20
2022-11-20T03:43:23.490Z,22.83
2022-11-20T03:44:55.188Z,26.13
2022-11-20T03:46:27.684Z,25.33
2022-11-20T03:47:59.338Z,23.30
2022-11-20T03:49:30.940Z,24.73
2022-11-20T03:51:10.529Z,25.63
2022-11-20T03:52:42.926Z,26.42
2022-11-20T03:54:14.519Z,25.40
2022-11-20T03:55:46.334Z,24.83
2022-11-20T03:57:19.313Z,25.73
2022-11-20T03:58:51.362Z,26.52
2022-11-20T04:00:23.019Z,24.88
2022-11-20T04:01:54.645Z,26.38
2022-11-20T04:03:26.510Z,24.52
2022-11-20T04:04:58.209Z,26.13
2022-11-20T04:06:34.079Z,25.60
2022-11-20T04:08:06.291Z,25.35
2022-11-20T04:09:37.943Z,27.25
2022-11-20T04:11:11.157Z,25.88
2022-11-20T04:12:44.244Z,25.15
2022-11-20T04:14:17.061Z,27.45
2022-11-20T04:15:48.690Z,26.00
2022-11-20T04:17:20.278Z,26.42
2022-11-20T04:18:53.553Z,27.33
2022-11-20T04:20:25.202Z,28.27
2022-11-20T04:21:56.849Z,26.58
2022-11-20T04:23:28.853Z,26.58
2022-11-20T04:25:00.705Z,25.20
2022-11-20T04:26:32.589Z,25.65
2022-11-20T04:28:05.635Z,26.15
2022-11-20T04:29:37.259Z,26.92
2022-11-20T04:31:10.703Z,26.58
2022-11-20T04:32:42.339Z,26.73
2022-11-20T04:34:14.129Z,25.52
2022-11-20T04:35:48.082Z,27.90
2022-11-20T04:37:19.732Z,23.77
2022-11-20T04:38:56.548Z,23.88
2022-11-20T04:40:29.543Z,25.73
2022-11-20T04:42:19.908Z,27.95
2022-11-20T04:43:59.633Z,27.45
2022-11-20T04:45:31.252Z,29.45
2022-11-20T04:47:02.852Z,27.42
2022-11-20T04:48:35.920Z,26.67
2022-11-20T04:50:08.916Z,25.88
2022-11-20T04:51:40.568Z,27.70
2022-11-20T04:53:12.312Z,26.27
2022-11-20T04:54:43.922Z,24.30
2022-11-20T04:56:16.043Z,28.50
2022-11-20T04:57:51.307Z,25.60
2022-11-20T04:59:24.584Z,25.83
2022-11-20T05:01:02.896Z,25.50
2022-11-20T05:02:34.497Z,28.77
2022-11-20T05:04:06.751Z,26.38
2022-11-20T05:05:38.416Z,25.27
2022-11-20T05:07:10.094Z,26.85
2022-11-20T05:08:42.296Z,27.65
2022-11-20T05:10:14.034Z,27.25
2022-11-20T05:11:49.185Z,24.20
2022-11-20T05:13:23.055Z,25.27
2022-11-20T05:14:56.127Z,28.27
2022-11-20T05:16:27.838Z,26.98
2022-11-20T05:17:59.700Z,26.05
2022-11-20T05:19:31.391Z,27.95
2022-11-20T05:21:03.401Z,27.67
2022-11-20T05:22:35.070Z,28.17
2022-11-20T05:24:07.868Z,26.58
2022-11-20T05:25:39.510Z,29.33
2022-11-20T05:27:11.106Z,27.02
2022-11-20T05:28:43.007Z,27.20
2022-11-20T05:30:16.293Z,27.92
2022-11-20T05:31:47.903Z,27.25
2022-11-20T05:33:19.942Z,23.85
2022-11-20T05:34:51.542Z,26.70
2022-11-20T05:36:23.199Z,26.33
2022-11-20T05:37:54.843Z,26.08
2022-11-20T05:39:26.426Z,24.55
2022-11-20T05:41:04.589Z,25.30
2022-11-20T05:42:36.577Z,24.75
2022-11-20T05:44:08.269Z,25.40
2022-11-20T05:45:41.287Z,26.23
2022-11-20T05:47:12.934Z,27.90
2022-11-20T05:48:45.955Z,24.23
2022-11-20T05:50:17.565Z,27.30
2022-11-20T05:51:49.419Z,24.30
2022-11-20T05:53:21.108Z,25.88
2022-11-20T05:54:52.778Z,26.00
2022-11-20T05:56:24.482Z,24.83
2022-11-20T05:57:56.243Z,26.77
2022-11-20T05:59:27.910Z,25.90
2022-11-20T06:01:06.629Z,25.85
2022-11-20T06:02:38.292Z,27.17
2022-11-20T06:04:10.097Z,27.23
2022-11-20T06:05:41.684Z,26.33
2022-11-20T06:07:13.505Z,25.52
2022-11-20T06:08:45.513Z,25.00
2022-11-20T06:10:17.199Z,23.83
2022-11-20T06:11:48.837Z,26.02
2022-11-20T06:13:20.529Z,26.75
2022-11-20T06:14:52.112Z,25.30
2022-11-20T06:16:25.195Z,25.92
2022-11-20T06:17:56.912Z,27.73
2022-11-20T06:19:28.635Z,24.70
2022-11-20T06:21:02.210Z,27.58
2022-11-20T06:22:33.858Z,26.65
2022-11-20T06:24:06.228Z,26.58
2022-11-20T06:25:38.741Z,28.10
2022-11-20T06:27:10.360Z,27.88
2022-11-20T06:28:42.470Z,28.15
2022-11-20T06:30:14.328Z,28.98
2022-11-20T06:31:47.359Z,30.75
2022-11-20T06:33:19.023Z,27.08
2022-11-20T06:34:50.707Z,28.27
2022-11-20T06:36:23.710Z,25.77
2022-11-20T06:37:57.017Z,27.73
2022-11-20T06:39:28.624Z,24.13
2022-11-20T06:41:00.284Z,27.02
2022-11-20T06:42:31.877Z,25.13
2022-11-20T06:44:04.955Z,28.30
2022-11-20T06:45:36.794Z,26.08
2022-11-20T06:47:09.818Z,27.23
2022-11-20T06:48:41.749Z,28.75
2022-11-20T06:50:13.547Z,26.30
2022-11-20T06:51:45.124Z,27.55
2022-11-20T06:53:17.025Z,29.38
2022-11-20T06:54:48.639Z,30.02
2022-11-20T06:56:20.330Z,26.48
2022-11-20T06:57:55.768Z,25.23
2022-11-20T06:59:28.750Z,27.13
2022-11-20T07:01:00.759Z,25.83
2022-11-20T07:02:33.787Z,26.02
2022-11-20T07:04:05.552Z,25.33
2022-11-20T07:05:37.883Z,27.27
2022-11-20T07:07:09.860Z,26.55
2022-11-20T07:08:41.658Z,27.70
2022-11-20T07:10:13.503Z,27.55
2022-11-20T07:11:45.111Z,26.83
2022-11-20T07:13:16.718Z,27.10
2022-11-20T07:14:48.361Z,27.17
2022-11-20T07:16:19.963Z,30.27
2022-11-20T07:17:53.181Z,28.73
2022-11-20T07:19:24.861Z,31.40
2022-11-20T07:20:56.791Z,27.65
2022-11-20T07:22:28.434Z,34.30
2022-11-20T07:24:00.158Z,32.17
2022-11-20T07:25:31.845Z,29.88
2022-11-20T07:27:03.519Z,28.42
2022-11-20T07:28:35.959Z,26.85
2022-11-20T07:30:08.281Z,27.50
2022-11-20T07:31:39.878Z,26.63
2022-11-20T07:33:12.858Z,31.58
2022-11-20T07:34:44.752Z,28.95
2022-11-20T07:36:16.522Z,29.35
2022-11-20T07:37:49.417Z,28.63
2022-11-20T07:39:21.304Z,26.98
2022-11-20T07:40:54.921Z,28.08
2022-11-20T07:42:29.708Z,29.35
2022-11-20T07:44:02.001Z,28.25
2022-11-20T07:45:33.689Z,26.30
2022-11-20T07:47:05.445Z,27.73
2022-11-20T07:48:38.450Z,27.60
2022-11-20T07:50:11.054Z,28.40
2022-11-20T07:51:42.693Z,27.88
2022-11-20T07:53:14.849Z,28.40
2022-11-20T07:54:46.621Z,30.20
2022-11-20T07:56:18.269Z,25.98
2022-11-20T07:57:55.500Z,27.15
2022-11-20T07:59:27.194Z,27.27
2022-11-20T08:00:58.908Z,29.52
2022-11-20T08:02:30.573Z,28.05
2022-11-20T08:04:03.661Z,27.67
2022-11-20T08:05:35.564Z,29.15
2022-11-20T08:07:07.209Z,27.63
2022-11-20T08:08:42.980Z,30.55
2022-11-20T08:10:19.420Z,29.65
2022-11-20T08:12:09.600Z,28.50
2022-11-20T08:15:31.371Z,31.27
2022-11-20T08:17:03.033Z,27.42
2022-11-20T08:18:34.707Z,29.95
2022-11-20T08:20:09.143Z,29.02
2022-11-20T08:21:41.708Z,28.50
2022-11-20T08:23:13.380Z,25.98
2022-11-20T08:24:45.005Z,27.15
2022-11-20T08:26:16.635Z,29.00
2022-11-20T08:27:48.223Z,27.05
2022-11-20T08:29:20.079Z,26.73
2022-11-20T08:30:51.977Z,29.02
2022-11-20T08:32:23.639Z,28.08
2022-11-20T08:33:55.534Z,26.80
2022-11-20T08:35:28.667Z,29.40
2022-11-20T08:37:00.340Z,29.45
2022-11-20T08:38:32.625Z,30.08
2022-11-20T08:40:05.147Z,29.10
2022-11-20T08:41:37.717Z,28.55
2022-11-20T08:43:09.369Z,29.73
2022-11-20T08:44:41.012Z,26.80
2022-11-20T08:46:12.877Z,30.02
2022-11-20T08:47:45.108Z,28.02
2022-11-20T08:49:16.798Z,25.85
2022-11-20T08:50:49.766Z,29.20
2022-11-20T08:52:21.384Z,28.42
2022-11-20T08:53:53.046Z,26.83
2022-11-20T08:55:24.668Z,25.48
2022-11-20T08:56:57.628Z,29.35
2022-11-20T08:58:31.017Z,27.58
2022-11-20T09:00:06.740Z,28.27
2022-11-20T09:01:39.893Z,29.20
2022-11-20T09:03:11.595Z,27.25
2022-11-20T09:04:43.289Z,27.73
2022-11-20T09:06:16.958Z,30.13
2022-11-20T09:07:48.549Z,27.73
2022-11-20T09:09:21.157Z,27.63
2022-11-20T09:10:53.479Z,28.10
2022-11-20T09:12:25.284Z,27.35
2022-11-20T09:13:56.879Z,27.63
2022-11-20T09:15:28.553Z,25.58
2022-11-20T09:17:00.294Z,30.67
2022-11-20T09:18:36.953Z,26.63
2022-11-20T09:20:10.829Z,26.75
2022-11-20T09:21:43.807Z,27.40
2022-11-20T09:23:15.455Z,29.20
2022-11-20T09:24:47.070Z,28.73
2022-11-20T09:26:18.851Z,26.60
2022-11-20T09:27:56.097Z,28.60
2022-11-20T09:29:27.919Z,26.83
2022-11-20T09:30:59.702Z,28.88
2022-11-20T09:32:31.387Z,30.50
2022-11-20T09:34:03.068Z,25.60
2022-11-20T09:35:35.201Z,24.27
2022-11-20T09:37:08.217Z,25.83
2022-11-20T09:38:39.882Z,27.70
2022-11-20T09:40:20.494Z,25.40
2022-11-20T09:42:19.842Z,28.17
2022-11-20T09:44:05.892Z,26.90
2022-11-20T09:45:58.859Z,25.95
2022-11-20T09:47:45.181Z,24.90
2022-11-20T09:49:32.044Z,28.40
2022-11-20T09:51:13.254Z,26.13
2022-11-20T09:52:56.156Z,25.15
2022-11-20T09:54:32.309Z,27.40
2022-11-20T09:56:05.669Z,26.55
2022-11-20T09:57:39.186Z,24.52
2022-11-20T09:59:24.678Z,24.48
2022-11-20T10:01:01.974Z,25.52
2022-11-20T10:02:41.971Z,25.70
2022-11-20T10:04:17.854Z,25.98
2022-11-20T10:05:54.014Z,25.50
2022-11-20T10:07:32.766Z,25.67
2022-11-20T10:09:20.037Z,24.17
2022-11-20T10:10:57.687Z,23.50
2022-11-20T10:12:42.902Z,24.30
2022-11-20T10:14:28.350Z,25.25
2022-11-20T10:16:18.092Z,24.40
2022-11-20T10:18:05.227Z,23.10
2022-11-20T10:19:53.202Z,23.27
2022-11-20T10:21:33.841Z,28.27
2022-11-20T10:23:26.266Z,26.60
2022-11-20T10:25:06.735Z,24.60
2022-11-20T10:26:47.407Z,24.52
2022-11-20T10:28:35.759Z,23.58
2022-11-20T10:30:11.703Z,25.02
2022-11-20T10:31:46.254Z,26.83
2022-11-20T10:33:20.605Z,25.88
2022-11-20T10:34:58.297Z,26.33
2022-11-20T10:36:34.871Z,25.35
2022-11-20T10:38:14.308Z,29.15
2022-11-20T10:39:55.641Z,27.45
2022-11-20T10:41:35.925Z,24.35
2022-11-20T10:43:13.922Z,27.20
2022-11-20T10:45:05.817Z,28.25
2022-11-20T10:46:43.229Z,28.40
2022-11-20T10:48:22.126Z,28.15
2022-11-20T10:49:56.416Z,30.20
2022-11-20T10:51:38.179Z,28.77
2022-11-20T10:53:21.516Z,28.83
2022-11-20T10:55:02.234Z,29.60
2022-11-20T10:56:48.314Z,28.73
2022-11-20T10:58:32.776Z,27.23
2022-11-20T11:00:07.285Z,26.60
2022-11-20T11:01:42.652Z,29.73
2022-11-20T11:03:23.452Z,25.98
2022-11-20T11:04:55.714Z,25.67
2022-11-20T11:06:35.401Z,27.02
2022-11-20T11:08:13.561Z,25.63
2022-11-20T11:09:49.060Z,27.17
2022-11-20T11:11:24.243Z,27.65
2022-11-20T11:12:57.264Z,26.85
2022-11-20T11:14:28.952Z,26.75
2022-11-20T11:16:00.627Z,27.63
2022-11-20T11:17:33.710Z,25.55
2022-11-20T11:19:06.439Z,24.83
2022-11-20T11:20:39.165Z,26.00
2022-11-20T11:22:17.359Z,24.13
2022-11-20T11:24:13.438Z,25.20
2022-11-20T11:25:58.970Z,25.85
2022-11-20T11:27:30.981Z,25.38
2022-11-20T11:29:05.075Z,25.08
2022-11-20T11:30:43.948Z,26.30
2022-11-20T11:32:18.779Z,25.00
2022-11-20T11:33:50.415Z,25.98
2022-11-20T11:35:25.406Z,24.88
2022-11-20T11:37:00.449Z,25.58
2022-11-20T11:38:36.305Z,26.02
2022-11-20T11:40:28.076Z,27.27
2022-11-20T11:42:01.848Z,25.95
2022-11-20T11:43:53.807Z,25.38
2022-11-20T11:45:27.244Z,26.13
2022-11-20T11:46:59.247Z,22.02
2022-11-20T11:48:31.002Z,25.70
2022-11-20T11:50:16.410Z,24.38
2022-11-20T11:52:02.178Z,25.67
2022-11-20T11:53:39.555Z,23.90
2022-11-20T11:55:17.856Z,27.80
2022-11-20T11:56:50.299Z,23.98
2022-11-20T11:58:39.469Z,26.52
2022-11-20T12:00:13.905Z,25.77
2022-11-20T12:01:52.473Z,25.02
2022-11-20T12:03:30.313Z,23.30
2022-11-20T12:05:09.636Z,25.83
2022-11-20T12:06:46.326Z,27.27
2022-11-20T12:08:22.436Z,29.48
2022-11-20T12:09:58.501Z,25.50
2022-11-20T12:11:33.974Z,25.92
2022-11-20T12:13:18.962Z,28.08
2022-11-20T12:14:53.574Z,24.52
2022-11-20T12:16:25.607Z,27.02
2022-11-20T12:17:58.705Z,27.55
2022-11-20T12:19:32.868Z,26.23
2022-11-20T12:21:18.495Z,25.75
2022-11-20T12:22:57.761Z,27.50
2022-11-20T12:24:43.567Z,28.02
2022-11-20T12:26:23.897Z,29.15
2022-11-20T12:28:19.834Z,29.35
2022-11-20T12:30:01.633Z,28.17
2022-11-20T12:31:51.011Z,28.50
2022-11-20T12:33:51.372Z,31.60
2022-11-20T12:35:40.100Z,29.15
2022-11-20T12:37:22.542Z,29.08
2022-11-20T12:39:28.092Z,25.63
2022-11-20T12:41:11.414Z,30.10
2022-11-20T12:43:15.200Z,27.40
2022-11-20T12:45:11.283Z,25.65
2022-11-20T12:46:47.893Z,26.05
2022-11-20T12:48:31.909Z,30.95
2022-11-20T12:50:16.043Z,30.63
2022-11-20T12:52:11.577Z,28.45
2022-11-20T12:53:56.974Z,26.50
2022-11-20T12:55:37.691Z,25.33
2022-11-20T12:57:16.813Z,28.48
2022-11-20T12:59:03.943Z,29.40
2022-11-20T13:00:40.436Z,29.60
2022-11-20T13:02:24.131Z,27.25
2022-11-20T13:04:07.799Z,25.63
2022-11-20T13:05:56.477Z,25.55
2022-11-20T13:07:29.267Z,29.00
2022-11-20T13:09:02.248Z,28.25
2022-11-20T13:10:47.005Z,30.17
2022-11-20T13:12:25.344Z,28.63
2022-11-20T13:14:13.406Z,29.60
2022-11-20T13:15:51.728Z,30.98
2022-11-20T13:17:31.781Z,28.23
2022-11-20T13:19:04.846Z,33.90
2022-11-20T13:20:37.437Z,30.40
2022-11-20T13:22:10.681Z,29.48
2022-11-20T13:23:42.346Z,34.47
2022-11-20T13:25:24.757Z,30.15
2022-11-20T13:27:04.855Z,30.67
2022-11-20T13:30:18.250Z,32.10
2022-11-20T13:31:50.115Z,33.78
2022-11-20T13:33:29.732Z,30.70
2022-11-20T13:35:02.929Z,29.35
2022-11-20T13:36:37.611Z,34.50
2022-11-20T13:38:12.974Z,32.60
2022-11-20T13:39:44.626Z,30.15
2022-11-20T13:41:36.026Z,32.08
2022-11-20T13:43:22.458Z,35.78
2022-11-20T13:44:56.270Z,35.65
2022-11-20T13:46:38.346Z,30.48
2022-11-20T13:48:21.979Z,33.15
2022-11-20T13:49:55.821Z,35.97
2022-11-20T13:51:38.145Z,32.72
2022-11-20T13:53:27.708Z,33.38
2022-11-20T13:55:11.486Z,31.83
2022-11-20T13:56:55.039Z,32.90
2022-11-20T13:58:41.590Z,34.15
2022-11-20T14:00:16.461Z,32.97
2022-11-20T14:01:49.438Z,30.67
2022-11-20T14:03:44.025Z,30.92
2022-11-20T14:05:21.843Z,30.33
2022-11-20T14:06:53.717Z,35.05
2022-11-20T14:08:32.259Z,33.25
2022-11-20T14:10:04.833Z,35.13
2022-11-20T14:11:36.512Z,35.10
2022-11-20T14:13:12.164Z,32.53
2022-11-20T14:14:49.921Z,34.60
2022-11-20T14:16:21.596Z,33.13
2022-11-20T14:17:53.390Z,31.20
2022-11-20T14:19:29.343Z,34.53
2022-11-20T14:21:01.613Z,34.30
2022-11-20T14:22:33.373Z,34.22
2022-11-20T14:24:08.028Z,31.05
2022-11-20T14:25:43.645Z,33.35
2022-11-20T14:27:17.347Z,34.60
2022-11-20T14:28:51.669Z,33.33
2022-11-20T14:30:25.060Z,31.52
2022-11-20T14:31:57.901Z,33.22
2022-11-20T14:33:29.744Z,32.28
2022-11-20T14:35:09.000Z,32.70
2022-11-20T14:36:40.844Z,33.58
2022-11-20T14:38:15.260Z,34.05
2022-11-20T14:39:52.855Z,30.55
2022-11-20T14:41:25.336Z,31.83
2022-11-20T14:42:57.950Z,32.22
2022-11-20T14:44:34.289Z,34.67
2022-11-20T14:46:08.775Z,32.60
2022-11-20T14:47:41.858Z,32.72
2022-11-20T14:49:13.709Z,32.28
2022-11-20T14:50:45.435Z,32.25
2022-11-20T14:52:20.092Z,33.83
2022-11-20T14:53:52.092Z,30.08
2022-11-20T14:55:30.636Z,30.90
2022-11-20T14:57:04.532Z,30.88
2022-11-20T14:58:36.195Z,32.45
2022-11-20T15:00:20.269Z,31.52
2022-11-20T15:01:57.495Z,30.30
2022-11-20T15:03:33.505Z,28.77
2022-11-20T15:05:05.902Z,29.50
2022-11-20T15:06:38.535Z,29.02
2022-11-20T15:08:11.656Z,28.45
2022-11-20T15:09:43.401Z,27.52
2022-11-20T15:11:20.608Z,30.60
2022-11-20T15:12:54.072Z,29.17
2022-11-20T15:14:27.476Z,27.58
2022-11-20T15:16:01.132Z,29.70
2022-11-20T15:17:37.465Z,32.30
2022-11-20T15:19:18.238Z,29.60
2022-11-20T15:20:50.188Z,28.52
2022-11-20T15:22:21.846Z,25.05
2022-11-20T15:23:54.643Z,29.83
2022-11-20T15:25:26.603Z,29.50
2022-11-20T15:27:00.501Z,30.70
2022-11-20T15:28:34.401Z,29.25
2022-11-20T15:30:15.001Z,30.85
2022-11-20T15:31:46.693Z,30.65
2022-11-20T15:33:18.642Z,28.98
2022-11-20T15:34:50.331Z,29.33
2022-11-20T15:36:22.040Z,29.60
2022-11-20T15:37:53.681Z,31.00
2022-11-20T15:39:25.306Z,28.98
2022-11-20T15:40:57.207Z,32.15
2022-11-20T15:42:30.299Z,30.73
2022-11-20T15:44:04.555Z,28.88
2022-11-20T15:45:40.273Z,31.08
2022-11-20T15:47:12.055Z,30.85
2022-11-20T15:48:48.315Z,29.70
2022-11-20T15:50:20.992Z,30.98
2022-11-20T15:51:54.115Z,32.53
2022-11-20T15:53:25.823Z,29.67
2022-11-20T15:54:57.574Z,33.50
2022-11-20T15:56:29.195Z,32.05
2022-11-20T15:58:02.201Z,30.45
2022-11-20T15:59:33.943Z,30.35
2022-11-20T16:01:05.794Z,30.30
2022-11-20T16:02:37.538Z,28.52
2022-11-20T16:04:11.934Z,30.60
2022-11-20T16:05:44.379Z,31.70
2022-11-20T16:07:16.298Z,33.30
2022-11-20T16:08:48.003Z,31.23
2022-11-20T16:10:19.925Z,32.20
2022-11-20T16:11:51.763Z,32.67
2022-11-20T16:13:43.600Z,30.38
2022-11-20T16:15:33.726Z,31.27
2022-11-20T16:18:37.050Z,29.05
2022-11-20T16:20:12.038Z,28.80
2022-11-20T16:21:43.871Z,28.85
2022-11-20T16:23:16.409Z,32.42
2022-11-20T16:24:48.233Z,33.75
2022-11-20T16:26:21.328Z,28.67
2022-11-20T16:27:53.017Z,29.42
2022-11-20T16:29:26.034Z,29.63
2022-11-20T16:30:57.790Z,32.15
2022-11-20T16:32:29.475Z,28.98
2022-11-20T16:34:05.918Z,31.13
2022-11-20T16:35:42.220Z,30.80
2022-11-20T16:37:13.885Z,31.50
2022-11-20T16:38:45.621Z,25.92
2022-11-20T16:40:17.382Z,28.67
2022-11-20T16:41:49.067Z,26.13
2022-11-20T16:43:20.707Z,27.52
2022-11-20T16:44:53.780Z,30.85
2022-11-20T16:46:27.178Z,31.77
2022-11-20T16:47:58.877Z,28.38
2022-11-20T16:49:30.486Z,30.50
2022-11-20T16:51:02.173Z,28.55
2022-11-20T16:52:33.956Z,30.92
2022-11-20T16:54:07.091Z,27.88
2022-11-20T16:55:38.712Z,30.45
2022-11-20T16:57:10.369Z,25.98
2022-11-20T16:58:42.277Z,27.73
2022-11-20T17:00:16.615Z,27.73
2022-11-20T17:01:48.424Z,33.10
2022-11-20T17:03:20.893Z,28.70
2022-11-20T17:04:52.757Z,31.02
2022-11-20T17:06:26.418Z,25.95
2022-11-20T17:07:58.229Z,26.08
2022-11-20T17:09:29.856Z,25.67
2022-11-20T17:11:05.305Z,27.25
2022-11-20T17:12:37.008Z,29.20
2022-11-20T17:14:10.708Z,26.27
2022-11-20T17:15:43.787Z,25.35
2022-11-20T17:17:15.382Z,24.90
2022-11-20T17:18:49.819Z,24.73
2022-11-20T17:20:22.207Z,22.08
2022-11-20T17:21:53.848Z,23.63
2022-11-20T17:23:27.825Z,24.00
2022-11-20T17:24:59.535Z,21.25
2022-11-20T17:26:32.162Z,24.02
2022-11-20T17:28:04.134Z,20.10
2022-11-20T17:29:41.795Z,21.90
2022-11-20T17:31:17.369Z,19.67
2022-11-20T17:32:48.996Z,21.23
2022-11-20T17:34:20.801Z,20.70
2022-11-20T17:35:52.520Z,19.80
2022-11-20T17:37:24.400Z,20.98
2022-11-20T17:38:56.031Z,20.67
2022-11-20T17:40:27.978Z,17.50
2022-11-20T17:42:18.341Z,20.77
2022-11-20T17:43:52.755Z,18.45
2022-11-20T17:45:24.418Z,19.80
2022-11-20T17:46:57.415Z,18.10
2022-11-20T17:48:30.571Z,18.98
2022-11-20T17:50:02.392Z,18.38
2022-11-20T17:51:37.564Z,19.48
2022-11-20T17:53:09.218Z,19.45
2022-11-20T17:54:40.913Z,17.23
2022-11-20T17:56:31.249Z,16.85
2022-11-20T17:58:06.515Z,14.70
2022-11-20T17:59:38.287Z,16.55
2022-11-20T18:01:10.941Z,20.65
2022-11-20T18:02:43.982Z,15.25
2022-11-20T18:04:16.659Z,16.40
2022-11-20T18:05:48.308Z,12.73
2022-11-20T18:07:20.079Z,14.68
2022-11-20T18:08:52.229Z,13.32
2022-11-20T18:10:24.070Z,13.98
2022-11-20T18:11:55.706Z,14.15
2022-11-20T18:13:48.009Z,13.10
2022-11-20T18:15:19.702Z,14.23
2022-11-20T18:16:53.079Z,13.13
2022-11-20T18:18:26.132Z,14.55
2022-11-20T18:20:21.691Z,15.32
2022-11-20T18:21:49.351Z,12.20
2022-11-20T18:23:20.947Z,12.13
2022-11-20T18:24:52.564Z,12.55
2022-11-20T18:26:25.286Z,14.05
2022-11-20T18:27:56.968Z,13.43
2022-11-20T18:29:31.195Z,15.13
2022-11-20T18:31:05.386Z,13.68
2022-11-20T18:32:37.059Z,13.50
2022-11-20T18:34:12.303Z,13.23
2022-11-20T18:35:43.971Z,13.30
2022-11-20T18:37:16.459Z,16.25
2022-11-20T18:38:50.241Z,14.15
2022-11-20T18:40:21.975Z,12.43
2022-11-20T18:42:11.919Z,13.60
2022-11-20T18:44:02.247Z,12.95
2022-11-20T18:45:33.943Z,14.65
2022-11-20T18:47:14.092Z,14.65
2022-11-20T18:48:46.395Z,12.82
2022-11-20T18:50:19.591Z,13.73
2022-11-20T18:51:51.313Z,16.13
2022-11-20T18:53:23.004Z,14.82
2022-11-20T18:54:55.569Z,13.20
2022-11-20T18:56:27.279Z,12.07
2022-11-20T18:58:00.034Z,14.85
2022-11-20T18:59:32.252Z,15.65
2022-11-20T19:01:06.200Z,13.88
2022-11-20T19:02:42.064Z,13.27
2022-11-20T19:04:17.762Z,13.35
2022-11-20T19:05:50.895Z,12.75
2022-11-20T19:07:23.175Z,15.43
2022-11-20T19:08:54.908Z,13.73
2022-11-20T19:10:27.308Z,16.73
2022-11-20T19:11:59.002Z,16.00
2022-11-20T19:13:32.537Z,16.60
2022-11-20T19:15:05.428Z,13.70
2022-11-20T19:16:37.080Z,15.57
2022-11-20T19:18:08.873Z,13.80
2022-11-20T19:19:40.759Z,21.60
2022-11-20T19:21:16.108Z,17.55
2022-11-20T19:22:50.411Z,16.00
2022-11-20T19:24:23.084Z,15.43
2022-11-20T19:25:58.820Z,16.67
2022-11-20T19:27:30.490Z,17.27
2022-11-20T19:29:02.743Z,18.35
2022-11-20T19:30:34.545Z,15.32
2022-11-20T19:32:06.244Z,13.30
2022-11-20T19:33:40.695Z,14.35
2022-11-20T19:35:13.269Z,13.25
2022-11-20T19:36:46.824Z,18.08
2022-11-20T19:38:18.538Z,12.07
2022-11-20T19:39:51.897Z,15.10
2022-11-20T19:41:31.614Z,15.90
2022-11-20T19:43:03.939Z,17.20
2022-11-20T19:44:38.826Z,15.65
2022-11-20T19:46:10.482Z,16.55
2022-11-20T19:49:34.494Z,14.02
2022-11-20T19:51:16.738Z,14.82
2022-11-20T19:52:53.236Z,14.15
2022-11-20T19:54:30.374Z,17.05
2022-11-20T19:56:02.675Z,15.20
2022-11-20T19:57:34.424Z,16.05
2022-11-20T19:59:06.250Z,15.50
2022-11-20T20:00:38.005Z,12.68
2022-11-20T20:02:11.274Z,15.55
2022-11-20T20:03:44.790Z,13.27
2022-11-20T20:05:16.515Z,17.55
2022-11-20T20:06:48.414Z,19.35
2022-11-20T20:08:23.906Z,14.65
2022-11-20T20:09:55.563Z,14.77
2022-11-20T20:11:29.829Z,17.23
2022-11-20T20:13:02.267Z,17.60
2022-11-20T20:14:34.800Z,18.10
2022-11-20T20:16:07.741Z,15.68
2022-11-20T20:17:40.654Z,16.42
2022-11-20T20:19:14.226Z,18.15
2022-11-20T20:20:45.897Z,20.00
2022-11-20T20:22:17.620Z,21.55
2022-11-20T20:23:53.169Z,20.15
2022-11-20T20:25:24.852Z,16.05
2022-11-20T20:26:58.270Z,16.05